sensor_id;sensor_type;location;lat;lon;timestamp;P1;durP1;ratioP1;P2;durP2;ratioP2
11453;SDS011;5783;55.174;61.310;2022-08-19T00:00:46;2.97;;;2.30;;
11453;SDS011;5783;55.174;61.310;2022-08-19T00:03:16;4.03;;;2.40;;
11453;SDS011;5783;55.174;61.310;2022-08-19T00:05:45;3.23;;;2.40;;
11453;SDS011;5783;55.174;61.310;2022-08-19T00:08:14;2.60;;;2.40;;
11453;SDS011;5783;55.174;61.310;2022-08-19T00:10:43;2.90;;;2.30;;
11453;SDS011;5783;55.174;61.310;2022-08-19T00:13:13;3.77;;;2.30;;
11453;SDS011;5783;55.174;61.310;2022-08-19T00:15:43;3.60;;;2.40;;
11453;SDS011;5783;55.174;61.310;2022-08-19T00:18:12;3.97;;;2.83;;
11453;SDS011;5783;55.174;61.310;2022-08-19T00:20:41;6.67;;;3.40;;
11453;SDS011;5783;55.174;61.310;2022-08-19T00:23:10;6.63;;;2.83;;
11453;SDS011;5783;55.174;61.310;2022-08-19T00:25:39;4.53;;;2.80;;
11453;SDS011;5783;55.174;61.310;2022-08-19T00:28:08;5.20;;;3.00;;
11453;SDS011;5783;55.174;61.310;2022-08-19T00:30:37;4.37;;;2.60;;
11453;SDS011;5783;55.174;61.310;2022-08-19T00:33:06;4.43;;;3.10;;
11453;SDS011;5783;55.174;61.310;2022-08-19T00:35:35;4.90;;;2.90;;
11453;SDS011;5783;55.174;61.310;2022-08-19T00:38:04;6.87;;;3.17;;
11453;SDS011;5783;55.174;61.310;2022-08-19T00:40:34;4.67;;;2.77;;
11453;SDS011;5783;55.174;61.310;2022-08-19T00:43:07;4.33;;;3.10;;
11453;SDS011;5783;55.174;61.310;2022-08-19T00:45:53;6.97;;;3.50;;
11453;SDS011;5783;55.174;61.310;2022-08-19T00:48:23;7.60;;;3.63;;
11453;SDS011;5783;55.174;61.310;2022-08-19T00:50:53;8.40;;;4.30;;
11453;SDS011;5783;55.174;61.310;2022-08-19T00:53:24;7.53;;;4.33;;
11453;SDS011;5783;55.174;61.310;2022-08-19T00:55:56;8.90;;;5.33;;
11453;SDS011;5783;55.174;61.310;2022-08-19T00:58:28;8.70;;;4.43;;
11453;SDS011;5783;55.174;61.310;2022-08-19T01:00:59;6.93;;;4.23;;
11453;SDS011;5783;55.174;61.310;2022-08-19T01:03:29;8.33;;;4.30;;
11453;SDS011;5783;55.174;61.310;2022-08-19T01:05:58;7.37;;;4.47;;
11453;SDS011;5783;55.174;61.310;2022-08-19T01:08:28;9.00;;;5.43;;
11453;SDS011;5783;55.174;61.310;2022-08-19T01:10:58;12.03;;;6.33;;
11453;SDS011;5783;55.174;61.310;2022-08-19T01:13:30;13.43;;;6.90;;
11453;SDS011;5783;55.174;61.310;2022-08-19T01:18:35;13.20;;;7.13;;
11453;SDS011;5783;55.174;61.310;2022-08-19T01:21:08;11.93;;;6.10;;
11453;SDS011;5783;55.174;61.310;2022-08-19T01:23:37;10.90;;;5.70;;
11453;SDS011;5783;55.174;61.310;2022-08-19T01:26:26;10.83;;;5.80;;
11453;SDS011;5783;55.174;61.310;2022-08-19T01:28:57;12.30;;;5.83;;
11453;SDS011;5783;55.174;61.310;2022-08-19T01:31:28;9.90;;;5.07;;
11453;SDS011;5783;55.174;61.310;2022-08-19T01:33:57;9.73;;;4.90;;
11453;SDS011;5783;55.174;61.310;2022-08-19T01:39:19;8.70;;;4.57;;
11453;SDS011;5783;55.174;61.310;2022-08-19T01:41:50;10.77;;;4.60;;
11453;SDS011;5783;55.174;61.310;2022-08-19T01:44:21;6.10;;;4.30;;
11453;SDS011;5783;55.174;61.310;2022-08-19T01:46:50;8.90;;;4.40;;
11453;SDS011;5783;55.174;61.310;2022-08-19T01:49:21;6.23;;;3.97;;
11453;SDS011;5783;55.174;61.310;2022-08-19T01:51:52;8.67;;;4.20;;
11453;SDS011;5783;55.174;61.310;2022-08-19T01:54:23;6.57;;;3.90;;
11453;SDS011;5783;55.174;61.310;2022-08-19T01:56:53;6.63;;;3.73;;
11453;SDS011;5783;55.174;61.310;2022-08-19T01:59:24;7.27;;;3.50;;
11453;SDS011;5783;55.174;61.310;2022-08-19T02:01:53;6.43;;;3.77;;
11453;SDS011;5783;55.174;61.310;2022-08-19T02:04:23;5.07;;;3.27;;
11453;SDS011;5783;55.174;61.310;2022-08-19T02:06:53;5.60;;;3.37;;
11453;SDS011;5783;55.174;61.310;2022-08-19T02:09:22;4.30;;;3.03;;
11453;SDS011;5783;55.174;61.310;2022-08-19T02:11:51;7.73;;;3.27;;
11453;SDS011;5783;55.174;61.310;2022-08-19T02:14:20;4.73;;;3.47;;
11453;SDS011;5783;55.174;61.310;2022-08-19T02:16:49;5.47;;;3.00;;
11453;SDS011;5783;55.174;61.310;2022-08-19T02:19:18;4.97;;;3.10;;
11453;SDS011;5783;55.174;61.310;2022-08-19T02:21:48;5.60;;;3.27;;
11453;SDS011;5783;55.174;61.310;2022-08-19T02:24:18;3.90;;;3.00;;
11453;SDS011;5783;55.174;61.310;2022-08-19T02:26:47;5.07;;;3.00;;
11453;SDS011;5783;55.174;61.310;2022-08-19T02:29:16;4.60;;;3.20;;
11453;SDS011;5783;55.174;61.310;2022-08-19T02:31:46;3.83;;;3.00;;
11453;SDS011;5783;55.174;61.310;2022-08-19T02:34:16;4.60;;;2.90;;
11453;SDS011;5783;55.174;61.310;2022-08-19T02:36:45;4.47;;;3.07;;
11453;SDS011;5783;55.174;61.310;2022-08-19T02:39:14;5.30;;;3.30;;
11453;SDS011;5783;55.174;61.310;2022-08-19T02:41:43;4.90;;;3.00;;
11453;SDS011;5783;55.174;61.310;2022-08-19T02:44:13;4.83;;;3.20;;
11453;SDS011;5783;55.174;61.310;2022-08-19T02:46:42;5.73;;;3.50;;
11453;SDS011;5783;55.174;61.310;2022-08-19T02:49:13;4.60;;;3.00;;
11453;SDS011;5783;55.174;61.310;2022-08-19T02:51:43;4.53;;;2.93;;
11453;SDS011;5783;55.174;61.310;2022-08-19T02:54:14;5.80;;;3.27;;
11453;SDS011;5783;55.174;61.310;2022-08-19T02:56:44;5.50;;;3.27;;
11453;SDS011;5783;55.174;61.310;2022-08-19T02:59:13;4.93;;;3.07;;
11453;SDS011;5783;55.174;61.310;2022-08-19T03:01:42;5.73;;;3.27;;
11453;SDS011;5783;55.174;61.310;2022-08-19T03:04:13;7.47;;;3.43;;
11453;SDS011;5783;55.174;61.310;2022-08-19T03:06:44;6.67;;;3.73;;
11453;SDS011;5783;55.174;61.310;2022-08-19T03:09:15;5.27;;;3.80;;
11453;SDS011;5783;55.174;61.310;2022-08-19T03:11:45;6.73;;;3.60;;
11453;SDS011;5783;55.174;61.310;2022-08-19T03:14:14;5.47;;;3.63;;
11453;SDS011;5783;55.174;61.310;2022-08-19T03:17:18;5.23;;;3.77;;
11453;SDS011;5783;55.174;61.310;2022-08-19T03:19:34;5.33;;;3.27;;
11453;SDS011;5783;55.174;61.310;2022-08-19T03:22:04;5.27;;;3.37;;
11453;SDS011;5783;55.174;61.310;2022-08-19T03:24:33;6.17;;;3.30;;
11453;SDS011;5783;55.174;61.310;2022-08-19T03:27:03;5.03;;;3.07;;
11453;SDS011;5783;55.174;61.310;2022-08-19T03:29:32;4.90;;;3.13;;
11453;SDS011;5783;55.174;61.310;2022-08-19T03:32:05;4.13;;;2.90;;
11453;SDS011;5783;55.174;61.310;2022-08-19T03:34:36;5.27;;;3.40;;
11453;SDS011;5783;55.174;61.310;2022-08-19T03:37:07;4.07;;;2.90;;
11453;SDS011;5783;55.174;61.310;2022-08-19T03:39:57;4.53;;;3.13;;
11453;SDS011;5783;55.174;61.310;2022-08-19T03:42:28;3.43;;;2.80;;
11453;SDS011;5783;55.174;61.310;2022-08-19T03:44:57;3.83;;;3.00;;
11453;SDS011;5783;55.174;61.310;2022-08-19T03:47:26;3.30;;;2.77;;
11453;SDS011;5783;55.174;61.310;2022-08-19T03:49:56;3.70;;;2.63;;
11453;SDS011;5783;55.174;61.310;2022-08-19T03:52:25;3.90;;;3.27;;
11453;SDS011;5783;55.174;61.310;2022-08-19T03:54:54;3.37;;;2.50;;
11453;SDS011;5783;55.174;61.310;2022-08-19T03:57:23;3.20;;;2.90;;
11453;SDS011;5783;55.174;61.310;2022-08-19T03:59:52;4.27;;;2.77;;
11453;SDS011;5783;55.174;61.310;2022-08-19T04:02:21;4.47;;;2.97;;
11453;SDS011;5783;55.174;61.310;2022-08-19T04:04:52;4.83;;;3.17;;
11453;SDS011;5783;55.174;61.310;2022-08-19T04:07:22;4.80;;;2.73;;
11453;SDS011;5783;55.174;61.310;2022-08-19T04:09:51;4.00;;;2.97;;
11453;SDS011;5783;55.174;61.310;2022-08-19T04:12:20;4.27;;;3.00;;
11453;SDS011;5783;55.174;61.310;2022-08-19T04:14:49;3.60;;;2.63;;
11453;SDS011;5783;55.174;61.310;2022-08-19T04:17:18;4.13;;;2.80;;
11453;SDS011;5783;55.174;61.310;2022-08-19T04:19:48;3.90;;;2.73;;
11453;SDS011;5783;55.174;61.310;2022-08-19T04:22:17;4.60;;;2.70;;
11453;SDS011;5783;55.174;61.310;2022-08-19T04:24:46;3.43;;;3.10;;
11453;SDS011;5783;55.174;61.310;2022-08-19T04:27:15;5.00;;;3.00;;
11453;SDS011;5783;55.174;61.310;2022-08-19T04:29:44;2.83;;;2.60;;
11453;SDS011;5783;55.174;61.310;2022-08-19T04:32:13;3.40;;;2.73;;
11453;SDS011;5783;55.174;61.310;2022-08-19T04:34:42;3.73;;;2.80;;
11453;SDS011;5783;55.174;61.310;2022-08-19T04:37:12;3.13;;;2.70;;
11453;SDS011;5783;55.174;61.310;2022-08-19T04:39:41;3.90;;;2.80;;
11453;SDS011;5783;55.174;61.310;2022-08-19T04:42:29;4.37;;;2.50;;
11453;SDS011;5783;55.174;61.310;2022-08-19T04:45:18;3.97;;;2.97;;
11453;SDS011;5783;55.174;61.310;2022-08-19T04:47:47;3.50;;;2.67;;
11453;SDS011;5783;55.174;61.310;2022-08-19T04:50:17;3.60;;;2.87;;
11453;SDS011;5783;55.174;61.310;2022-08-19T04:52:46;3.93;;;3.10;;
11453;SDS011;5783;55.174;61.310;2022-08-19T04:55:16;5.10;;;2.83;;
11453;SDS011;5783;55.174;61.310;2022-08-19T04:57:45;5.97;;;3.20;;
11453;SDS011;5783;55.174;61.310;2022-08-19T05:00:16;4.53;;;3.10;;
11453;SDS011;5783;55.174;61.310;2022-08-19T05:02:45;4.47;;;3.00;;
11453;SDS011;5783;55.174;61.310;2022-08-19T05:05:15;3.87;;;3.10;;
11453;SDS011;5783;55.174;61.310;2022-08-19T05:07:44;4.90;;;3.50;;
11453;SDS011;5783;55.174;61.310;2022-08-19T05:10:13;4.43;;;3.27;;
11453;SDS011;5783;55.174;61.310;2022-08-19T05:12:42;6.80;;;3.80;;
11453;SDS011;5783;55.174;61.310;2022-08-19T05:15:11;5.67;;;3.73;;
11453;SDS011;5783;55.174;61.310;2022-08-19T05:17:41;4.43;;;3.50;;
11453;SDS011;5783;55.174;61.310;2022-08-19T05:20:11;7.17;;;3.73;;
11453;SDS011;5783;55.174;61.310;2022-08-19T05:23:00;4.83;;;3.80;;
11453;SDS011;5783;55.174;61.310;2022-08-19T05:25:29;8.40;;;3.93;;
11453;SDS011;5783;55.174;61.310;2022-08-19T05:27:58;7.60;;;3.60;;
11453;SDS011;5783;55.174;61.310;2022-08-19T05:30:28;4.57;;;3.67;;
11453;SDS011;5783;55.174;61.310;2022-08-19T05:32:58;5.67;;;3.40;;
11453;SDS011;5783;55.174;61.310;2022-08-19T05:35:47;5.40;;;3.83;;
11453;SDS011;5783;55.174;61.310;2022-08-19T05:38:18;6.17;;;3.77;;
11453;SDS011;5783;55.174;61.310;2022-08-19T05:40:47;4.97;;;3.53;;
11453;SDS011;5783;55.174;61.310;2022-08-19T05:43:16;4.30;;;3.90;;
11453;SDS011;5783;55.174;61.310;2022-08-19T05:45:45;4.67;;;4.07;;
11453;SDS011;5783;55.174;61.310;2022-08-19T05:48:16;4.07;;;3.20;;
11453;SDS011;5783;55.174;61.310;2022-08-19T05:50:46;5.83;;;3.70;;
11453;SDS011;5783;55.174;61.310;2022-08-19T05:53:16;4.13;;;3.60;;
11453;SDS011;5783;55.174;61.310;2022-08-19T05:55:46;8.90;;;3.70;;
11453;SDS011;5783;55.174;61.310;2022-08-19T05:58:15;4.60;;;3.90;;
11453;SDS011;5783;55.174;61.310;2022-08-19T06:00:44;5.37;;;3.60;;
11453;SDS011;5783;55.174;61.310;2022-08-19T06:03:13;4.73;;;3.83;;
11453;SDS011;5783;55.174;61.310;2022-08-19T06:05:43;4.63;;;3.70;;
11453;SDS011;5783;55.174;61.310;2022-08-19T06:08:14;4.03;;;3.40;;
11453;SDS011;5783;55.174;61.310;2022-08-19T06:10:44;4.87;;;3.70;;
11453;SDS011;5783;55.174;61.310;2022-08-19T06:13:13;4.43;;;3.83;;
11453;SDS011;5783;55.174;61.310;2022-08-19T06:15:43;9.67;;;3.90;;
11453;SDS011;5783;55.174;61.310;2022-08-19T06:18:13;6.33;;;3.97;;
11453;SDS011;5783;55.174;61.310;2022-08-19T06:20:42;4.13;;;3.73;;
11453;SDS011;5783;55.174;61.310;2022-08-19T06:23:12;3.93;;;3.53;;
11453;SDS011;5783;55.174;61.310;2022-08-19T06:25:42;8.47;;;4.20;;
11453;SDS011;5783;55.174;61.310;2022-08-19T06:28:11;6.27;;;4.03;;
11453;SDS011;5783;55.174;61.310;2022-08-19T06:30:40;5.00;;;3.83;;
11453;SDS011;5783;55.174;61.310;2022-08-19T06:33:10;5.30;;;3.60;;
11453;SDS011;5783;55.174;61.310;2022-08-19T06:35:40;3.90;;;3.50;;
11453;SDS011;5783;55.174;61.310;2022-08-19T06:38:10;4.00;;;3.43;;
11453;SDS011;5783;55.174;61.310;2022-08-19T06:40:39;5.50;;;3.40;;
11453;SDS011;5783;55.174;61.310;2022-08-19T06:43:08;4.83;;;4.10;;
11453;SDS011;5783;55.174;61.310;2022-08-19T06:45:37;4.33;;;3.73;;
11453;SDS011;5783;55.174;61.310;2022-08-19T06:48:06;5.47;;;3.63;;
11453;SDS011;5783;55.174;61.310;2022-08-19T06:50:35;3.60;;;3.30;;
11453;SDS011;5783;55.174;61.310;2022-08-19T06:53:04;4.27;;;3.50;;
11453;SDS011;5783;55.174;61.310;2022-08-19T06:55:36;6.20;;;3.83;;
11453;SDS011;5783;55.174;61.310;2022-08-19T06:58:09;5.23;;;4.50;;
11453;SDS011;5783;55.174;61.310;2022-08-19T07:00:38;6.67;;;4.40;;
11453;SDS011;5783;55.174;61.310;2022-08-19T07:03:07;6.77;;;4.77;;
11453;SDS011;5783;55.174;61.310;2022-08-19T07:08:27;7.03;;;5.70;;
11453;SDS011;5783;55.174;61.310;2022-08-19T07:10:56;8.47;;;6.30;;
11453;SDS011;5783;55.174;61.310;2022-08-19T07:13:26;7.77;;;5.60;;
11453;SDS011;5783;55.174;61.310;2022-08-19T07:15:55;9.30;;;5.80;;
11453;SDS011;5783;55.174;61.310;2022-08-19T07:18:24;9.70;;;6.80;;
11453;SDS011;5783;55.174;61.310;2022-08-19T07:21:02;8.67;;;6.00;;
11453;SDS011;5783;55.174;61.310;2022-08-19T07:23:44;7.83;;;6.00;;
11453;SDS011;5783;55.174;61.310;2022-08-19T07:29:04;9.63;;;6.10;;
11453;SDS011;5783;55.174;61.310;2022-08-19T07:31:34;8.20;;;5.87;;
11453;SDS011;5783;55.174;61.310;2022-08-19T07:34:04;6.10;;;5.50;;
11453;SDS011;5783;55.174;61.310;2022-08-19T07:36:37;7.20;;;5.80;;
11453;SDS011;5783;55.174;61.310;2022-08-19T07:42:00;6.97;;;5.30;;
11453;SDS011;5783;55.174;61.310;2022-08-19T07:44:32;7.60;;;5.53;;
11453;SDS011;5783;55.174;61.310;2022-08-19T07:47:02;9.07;;;5.93;;
11453;SDS011;5783;55.174;61.310;2022-08-19T07:49:32;7.23;;;6.10;;
11453;SDS011;5783;55.174;61.310;2022-08-19T07:52:04;9.40;;;5.50;;
11453;SDS011;5783;55.174;61.310;2022-08-19T07:54:35;9.03;;;6.33;;
11453;SDS011;5783;55.174;61.310;2022-08-19T07:57:08;7.60;;;5.60;;
11453;SDS011;5783;55.174;61.310;2022-08-19T07:59:37;9.37;;;6.20;;
11453;SDS011;5783;55.174;61.310;2022-08-19T08:02:07;7.63;;;5.77;;
11453;SDS011;5783;55.174;61.310;2022-08-19T08:04:37;6.23;;;5.47;;
11453;SDS011;5783;55.174;61.310;2022-08-19T08:07:25;7.50;;;5.30;;
11453;SDS011;5783;55.174;61.310;2022-08-19T08:10:14;8.20;;;5.67;;
11453;SDS011;5783;55.174;61.310;2022-08-19T08:12:43;8.17;;;5.67;;
11453;SDS011;5783;55.174;61.310;2022-08-19T08:15:13;6.63;;;5.63;;
11453;SDS011;5783;55.174;61.310;2022-08-19T08:17:44;6.23;;;5.60;;
11453;SDS011;5783;55.174;61.310;2022-08-19T08:20:13;6.93;;;5.47;;
11453;SDS011;5783;55.174;61.310;2022-08-19T08:22:43;7.57;;;5.57;;
11453;SDS011;5783;55.174;61.310;2022-08-19T08:25:34;6.57;;;5.20;;
11453;SDS011;5783;55.174;61.310;2022-08-19T08:28:04;5.63;;;5.10;;
11453;SDS011;5783;55.174;61.310;2022-08-19T08:30:35;6.90;;;5.60;;
11453;SDS011;5783;55.174;61.310;2022-08-19T08:33:05;6.17;;;5.57;;
11453;SDS011;5783;55.174;61.310;2022-08-19T08:35:35;5.93;;;5.33;;
11453;SDS011;5783;55.174;61.310;2022-08-19T08:38:04;6.07;;;5.47;;
11453;SDS011;5783;55.174;61.310;2022-08-19T08:52:33;6.80;;;5.40;;
11453;SDS011;5783;55.174;61.310;2022-08-19T08:55:07;8.90;;;5.90;;
11453;SDS011;5783;55.174;61.310;2022-08-19T08:57:41;7.87;;;5.20;;
11453;SDS011;5783;55.174;61.310;2022-08-19T09:00:13;9.23;;;5.60;;
11453;SDS011;5783;55.174;61.310;2022-08-19T09:02:45;8.63;;;5.50;;
11453;SDS011;5783;55.174;61.310;2022-08-19T09:05:14;10.27;;;6.47;;
11453;SDS011;5783;55.174;61.310;2022-08-19T09:10:38;7.83;;;6.40;;
11453;SDS011;5783;55.174;61.310;2022-08-19T09:16:19;7.87;;;6.47;;
11453;SDS011;5783;55.174;61.310;2022-08-19T09:18:51;10.20;;;6.40;;
11453;SDS011;5783;55.174;61.310;2022-08-19T09:21:25;10.60;;;6.60;;
11453;SDS011;5783;55.174;61.310;2022-08-19T09:23:54;7.63;;;6.27;;
11453;SDS011;5783;55.174;61.310;2022-08-19T09:26:24;10.47;;;6.90;;
11453;SDS011;5783;55.174;61.310;2022-08-19T09:28:56;10.63;;;6.43;;
11453;SDS011;5783;55.174;61.310;2022-08-19T09:33:58;8.87;;;6.33;;
11453;SDS011;5783;55.174;61.310;2022-08-19T09:36:31;8.77;;;6.80;;
11453;SDS011;5783;55.174;61.310;2022-08-19T09:39:21;7.40;;;6.33;;
11453;SDS011;5783;55.174;61.310;2022-08-19T09:41:50;7.93;;;6.50;;
11453;SDS011;5783;55.174;61.310;2022-08-19T09:44:19;8.27;;;5.83;;
11453;SDS011;5783;55.174;61.310;2022-08-19T09:46:49;9.80;;;6.40;;
11453;SDS011;5783;55.174;61.310;2022-08-19T09:49:18;9.17;;;5.97;;
11453;SDS011;5783;55.174;61.310;2022-08-19T09:54:38;7.00;;;5.63;;
11453;SDS011;5783;55.174;61.310;2022-08-19T09:57:07;9.20;;;5.90;;
11453;SDS011;5783;55.174;61.310;2022-08-19T09:59:36;9.30;;;5.93;;
11453;SDS011;5783;55.174;61.310;2022-08-19T10:02:07;8.97;;;5.13;;
11453;SDS011;5783;55.174;61.310;2022-08-19T10:04:38;6.37;;;4.70;;
11453;SDS011;5783;55.174;61.310;2022-08-19T10:07:26;8.53;;;5.43;;
11453;SDS011;5783;55.174;61.310;2022-08-19T10:09:57;5.90;;;5.30;;
11453;SDS011;5783;55.174;61.310;2022-08-19T10:12:26;6.80;;;5.10;;
11453;SDS011;5783;55.174;61.310;2022-08-19T10:14:56;6.10;;;4.97;;
11453;SDS011;5783;55.174;61.310;2022-08-19T10:17:25;6.23;;;4.93;;
11453;SDS011;5783;55.174;61.310;2022-08-19T10:19:54;6.63;;;4.80;;
11453;SDS011;5783;55.174;61.310;2022-08-19T10:22:24;4.90;;;4.40;;
11453;SDS011;5783;55.174;61.310;2022-08-19T10:24:53;4.60;;;4.20;;
11453;SDS011;5783;55.174;61.310;2022-08-19T10:27:22;6.43;;;4.43;;
11453;SDS011;5783;55.174;61.310;2022-08-19T10:29:52;4.80;;;3.97;;
11453;SDS011;5783;55.174;61.310;2022-08-19T10:32:22;4.50;;;4.10;;
11453;SDS011;5783;55.174;61.310;2022-08-19T10:34:51;4.33;;;3.93;;
11453;SDS011;5783;55.174;61.310;2022-08-19T10:37:20;5.03;;;4.40;;
11453;SDS011;5783;55.174;61.310;2022-08-19T10:39:49;5.53;;;4.13;;
11453;SDS011;5783;55.174;61.310;2022-08-19T10:42:18;4.50;;;4.03;;
11453;SDS011;5783;55.174;61.310;2022-08-19T10:44:48;4.73;;;3.83;;
11453;SDS011;5783;55.174;61.310;2022-08-19T10:47:17;4.57;;;4.00;;
11453;SDS011;5783;55.174;61.310;2022-08-19T10:49:48;4.63;;;3.87;;
11453;SDS011;5783;55.174;61.310;2022-08-19T10:52:36;4.40;;;4.00;;
11453;SDS011;5783;55.174;61.310;2022-08-19T10:55:06;4.20;;;3.80;;
11453;SDS011;5783;55.174;61.310;2022-08-19T10:57:39;5.00;;;3.93;;
11453;SDS011;5783;55.174;61.310;2022-08-19T11:00:09;3.83;;;3.47;;
11453;SDS011;5783;55.174;61.310;2022-08-19T11:02:39;4.37;;;3.97;;
11453;SDS011;5783;55.174;61.310;2022-08-19T11:05:08;4.20;;;3.80;;
11453;SDS011;5783;55.174;61.310;2022-08-19T11:07:38;3.93;;;3.57;;
11453;SDS011;5783;55.174;61.310;2022-08-19T11:10:08;4.60;;;4.20;;
11453;SDS011;5783;55.174;61.310;2022-08-19T11:12:39;4.23;;;3.60;;
11453;SDS011;5783;55.174;61.310;2022-08-19T11:15:11;5.03;;;3.90;;
11453;SDS011;5783;55.174;61.310;2022-08-19T11:17:40;4.33;;;3.50;;
11453;SDS011;5783;55.174;61.310;2022-08-19T11:22:59;4.50;;;3.73;;
11453;SDS011;5783;55.174;61.310;2022-08-19T11:25:28;4.70;;;3.83;;
11453;SDS011;5783;55.174;61.310;2022-08-19T11:27:57;6.60;;;3.73;;
11453;SDS011;5783;55.174;61.310;2022-08-19T11:30:26;6.60;;;3.50;;
11453;SDS011;5783;55.174;61.310;2022-08-19T11:32:55;4.53;;;3.87;;
11453;SDS011;5783;55.174;61.310;2022-08-19T11:35:26;4.60;;;3.50;;
11453;SDS011;5783;55.174;61.310;2022-08-19T11:37:55;5.43;;;4.00;;
11453;SDS011;5783;55.174;61.310;2022-08-19T11:40:26;4.97;;;3.80;;
11453;SDS011;5783;55.174;61.310;2022-08-19T11:42:55;3.93;;;3.53;;
11453;SDS011;5783;55.174;61.310;2022-08-19T11:45:25;5.10;;;4.00;;
11453;SDS011;5783;55.174;61.310;2022-08-19T11:47:56;5.47;;;3.43;;
11453;SDS011;5783;55.174;61.310;2022-08-19T11:50:25;4.43;;;4.00;;
11453;SDS011;5783;55.174;61.310;2022-08-19T11:52:55;5.30;;;3.73;;
11453;SDS011;5783;55.174;61.310;2022-08-19T11:55:25;4.03;;;3.63;;
11453;SDS011;5783;55.174;61.310;2022-08-19T11:57:55;4.30;;;3.90;;
11453;SDS011;5783;55.174;61.310;2022-08-19T12:00:24;6.07;;;3.60;;
11453;SDS011;5783;55.174;61.310;2022-08-19T12:02:53;4.13;;;3.73;;
11453;SDS011;5783;55.174;61.310;2022-08-19T12:05:22;4.10;;;3.40;;
11453;SDS011;5783;55.174;61.310;2022-08-19T12:07:51;4.43;;;3.47;;
11453;SDS011;5783;55.174;61.310;2022-08-19T12:10:22;5.50;;;3.73;;
11453;SDS011;5783;55.174;61.310;2022-08-19T12:12:51;4.33;;;3.83;;
11453;SDS011;5783;55.174;61.310;2022-08-19T12:15:21;4.23;;;3.60;;
11453;SDS011;5783;55.174;61.310;2022-08-19T12:17:50;5.77;;;3.60;;
11453;SDS011;5783;55.174;61.310;2022-08-19T12:20:21;4.23;;;3.80;;
11453;SDS011;5783;55.174;61.310;2022-08-19T12:22:50;5.60;;;3.57;;
11453;SDS011;5783;55.174;61.310;2022-08-19T12:25:20;5.30;;;3.70;;
11453;SDS011;5783;55.174;61.310;2022-08-19T12:27:49;5.03;;;3.60;;
11453;SDS011;5783;55.174;61.310;2022-08-19T12:30:18;4.63;;;3.70;;
11453;SDS011;5783;55.174;61.310;2022-08-19T12:32:47;5.07;;;3.70;;
11453;SDS011;5783;55.174;61.310;2022-08-19T12:35:17;5.63;;;3.80;;
11453;SDS011;5783;55.174;61.310;2022-08-19T12:37:47;4.77;;;3.83;;
11453;SDS011;5783;55.174;61.310;2022-08-19T12:40:18;4.93;;;3.80;;
11453;SDS011;5783;55.174;61.310;2022-08-19T12:42:47;5.13;;;3.93;;
11453;SDS011;5783;55.174;61.310;2022-08-19T12:45:17;4.33;;;3.93;;
11453;SDS011;5783;55.174;61.310;2022-08-19T12:47:46;6.57;;;3.50;;
11453;SDS011;5783;55.174;61.310;2022-08-19T12:50:15;5.10;;;4.60;;
11453;SDS011;5783;55.174;61.310;2022-08-19T12:52:44;6.37;;;4.13;;
11453;SDS011;5783;55.174;61.310;2022-08-19T12:55:13;4.57;;;3.50;;
11453;SDS011;5783;55.174;61.310;2022-08-19T12:57:44;5.13;;;4.00;;
11453;SDS011;5783;55.174;61.310;2022-08-19T13:00:15;5.27;;;3.90;;
11453;SDS011;5783;55.174;61.310;2022-08-19T13:02:48;4.57;;;4.00;;
11453;SDS011;5783;55.174;61.310;2022-08-19T13:05:20;4.70;;;3.80;;
11453;SDS011;5783;55.174;61.310;2022-08-19T13:07:51;5.67;;;4.47;;
11453;SDS011;5783;55.174;61.310;2022-08-19T13:10:22;5.77;;;4.07;;
11453;SDS011;5783;55.174;61.310;2022-08-19T13:12:54;5.57;;;4.10;;
11453;SDS011;5783;55.174;61.310;2022-08-19T13:15:25;5.93;;;4.00;;
11453;SDS011;5783;55.174;61.310;2022-08-19T13:17:56;5.10;;;4.00;;
11453;SDS011;5783;55.174;61.310;2022-08-19T13:20:26;3.97;;;3.57;;
11453;SDS011;5783;55.174;61.310;2022-08-19T13:22:55;6.30;;;4.27;;
11453;SDS011;5783;55.174;61.310;2022-08-19T13:25:24;5.37;;;4.20;;
11453;SDS011;5783;55.174;61.310;2022-08-19T13:27:53;5.43;;;4.10;;
11453;SDS011;5783;55.174;61.310;2022-08-19T13:30:23;4.67;;;3.83;;
11453;SDS011;5783;55.174;61.310;2022-08-19T13:33:11;5.37;;;4.30;;
11453;SDS011;5783;55.174;61.310;2022-08-19T13:38:31;6.83;;;4.27;;
11453;SDS011;5783;55.174;61.310;2022-08-19T13:41:04;8.47;;;4.30;;
11453;SDS011;5783;55.174;61.310;2022-08-19T13:46:08;4.90;;;4.27;;
11453;SDS011;5783;55.174;61.310;2022-08-19T13:51:43;5.37;;;4.40;;
11453;SDS011;5783;55.174;61.310;2022-08-19T13:54:13;5.83;;;4.33;;
11453;SDS011;5783;55.174;61.310;2022-08-19T13:56:45;7.27;;;4.90;;
11453;SDS011;5783;55.174;61.310;2022-08-19T13:59:14;4.87;;;4.20;;
11453;SDS011;5783;55.174;61.310;2022-08-19T14:01:45;9.10;;;4.43;;
11453;SDS011;5783;55.174;61.310;2022-08-19T14:04:14;6.47;;;4.10;;
11453;SDS011;5783;55.174;61.310;2022-08-19T14:06:45;7.40;;;4.43;;
11453;SDS011;5783;55.174;61.310;2022-08-19T14:09:14;5.37;;;4.53;;
11453;SDS011;5783;55.174;61.310;2022-08-19T14:11:43;5.47;;;4.27;;
11453;SDS011;5783;55.174;61.310;2022-08-19T14:14:12;6.27;;;4.33;;
11453;SDS011;5783;55.174;61.310;2022-08-19T14:16:42;6.47;;;4.50;;
11453;SDS011;5783;55.174;61.310;2022-08-19T14:19:11;5.20;;;4.60;;
11453;SDS011;5783;55.174;61.310;2022-08-19T14:21:40;6.93;;;4.90;;
11453;SDS011;5783;55.174;61.310;2022-08-19T14:24:09;6.33;;;4.83;;
11453;SDS011;5783;55.174;61.310;2022-08-19T14:26:38;6.43;;;4.80;;
11453;SDS011;5783;55.174;61.310;2022-08-19T14:29:07;5.53;;;4.47;;
11453;SDS011;5783;55.174;61.310;2022-08-19T14:31:36;7.00;;;4.37;;
11453;SDS011;5783;55.174;61.310;2022-08-19T14:34:07;5.53;;;4.63;;
11453;SDS011;5783;55.174;61.310;2022-08-19T14:36:38;6.77;;;4.57;;
11453;SDS011;5783;55.174;61.310;2022-08-19T14:39:08;5.80;;;4.70;;
11453;SDS011;5783;55.174;61.310;2022-08-19T14:41:39;6.77;;;4.73;;
11453;SDS011;5783;55.174;61.310;2022-08-19T14:44:08;5.73;;;4.63;;
11453;SDS011;5783;55.174;61.310;2022-08-19T14:46:39;6.07;;;5.03;;
11453;SDS011;5783;55.174;61.310;2022-08-19T14:49:10;5.40;;;4.70;;
11453;SDS011;5783;55.174;61.310;2022-08-19T14:51:59;8.20;;;5.10;;
11453;SDS011;5783;55.174;61.310;2022-08-19T14:54:28;7.93;;;5.33;;
11453;SDS011;5783;55.174;61.310;2022-08-19T15:00:06;6.53;;;4.63;;
11453;SDS011;5783;55.174;61.310;2022-08-19T15:02:56;6.40;;;4.47;;
11453;SDS011;5783;55.174;61.310;2022-08-19T15:05:25;4.93;;;4.30;;
11453;SDS011;5783;55.174;61.310;2022-08-19T15:07:54;5.40;;;4.90;;
11453;SDS011;5783;55.174;61.310;2022-08-19T15:10:23;4.93;;;4.10;;
11453;SDS011;5783;55.174;61.310;2022-08-19T15:12:52;5.43;;;4.63;;
11453;SDS011;5783;55.174;61.310;2022-08-19T15:15:22;5.27;;;4.53;;
11453;SDS011;5783;55.174;61.310;2022-08-19T15:17:51;4.87;;;4.17;;
11453;SDS011;5783;55.174;61.310;2022-08-19T15:20:20;4.60;;;4.10;;
11453;SDS011;5783;55.174;61.310;2022-08-19T15:22:50;6.97;;;4.67;;
11453;SDS011;5783;55.174;61.310;2022-08-19T15:25:19;6.50;;;4.77;;
11453;SDS011;5783;55.174;61.310;2022-08-19T15:27:49;4.97;;;4.43;;
11453;SDS011;5783;55.174;61.310;2022-08-19T15:30:20;5.53;;;4.20;;
11453;SDS011;5783;55.174;61.310;2022-08-19T15:32:51;5.60;;;4.07;;
11453;SDS011;5783;55.174;61.310;2022-08-19T15:35:20;5.00;;;3.90;;
11453;SDS011;5783;55.174;61.310;2022-08-19T15:40:22;5.53;;;4.10;;
11453;SDS011;5783;55.174;61.310;2022-08-19T15:42:52;5.23;;;4.00;;
11453;SDS011;5783;55.174;61.310;2022-08-19T15:45:23;5.10;;;4.23;;
11453;SDS011;5783;55.174;61.310;2022-08-19T15:47:54;4.97;;;4.00;;
11453;SDS011;5783;55.174;61.310;2022-08-19T15:50:23;4.20;;;3.80;;
11453;SDS011;5783;55.174;61.310;2022-08-19T15:52:55;4.50;;;4.10;;
11453;SDS011;5783;55.174;61.310;2022-08-19T15:55:27;5.07;;;4.20;;
11453;SDS011;5783;55.174;61.310;2022-08-19T15:58:17;4.53;;;4.13;;
11453;SDS011;5783;55.174;61.310;2022-08-19T16:01:06;4.63;;;4.20;;
11453;SDS011;5783;55.174;61.310;2022-08-19T16:03:56;4.93;;;4.00;;